CFG6AH LSZH-EDDF
Flight info
| Callsign | CFG6AH |
|---|---|
| Flight time | 0h 44m |
| Altitude | 22000 |
| Route | DEGES Z1 SUDEN T164 KOVAN T163 SPESA SPESA4B |
| Aircraft | A320/M-SDE3FGHIRWY/LB1 |
Departure
| Time | 2026-05-04 19:16 |
|---|---|
| Airport | Zürich Airport (LSZH) |
Arrival
| Time | 2026-05-04 20:00 |
|---|---|
| Airport | Frankfurt Main Airport (EDDF) |
| Time | Latitude | Longitude | Altitude | Speed | Heading |
|---|---|---|---|---|---|
| 2026-05-04 18:40 | 47.45424 | 8.55803 | 1407 ft | 0 kts | 186° |
| 2026-05-04 19:07 | 47.45429 | 8.55804 | 1407 ft | 4 kts | 185° |
| 2026-05-04 19:07 | 47.45456 | 8.55805 | 1409 ft | 4 kts | 174° |
| 2026-05-04 19:07 | 47.45482 | 8.55798 | 1410 ft | 4 kts | 158° |
| 2026-05-04 19:07 | 47.45503 | 8.55778 | 1409 ft | 4 kts | 117° |
| 2026-05-04 19:08 | 47.45507 | 8.55764 | 1407 ft | 0 kts | 96° |
| 2026-05-04 19:10 | 47.45502 | 8.55833 | 1411 ft | 16 kts | 96° |
| 2026-05-04 19:11 | 47.45488 | 8.56038 | 1411 ft | 21 kts | 96° |
| 2026-05-04 19:11 | 47.45497 | 8.56237 | 1411 ft | 18 kts | 57° |
| 2026-05-04 19:11 | 47.45560 | 8.56364 | 1413 ft | 13 kts | 52° |
| 2026-05-04 19:11 | 47.45589 | 8.56523 | 1419 ft | 21 kts | 95° |
| 2026-05-04 19:12 | 47.45575 | 8.56745 | 1425 ft | 21 kts | 96° |
| 2026-05-04 19:12 | 47.45614 | 8.57022 | 1424 ft | 7 kts | 7° |
| 2026-05-04 19:12 | 47.45653 | 8.57020 | 1425 ft | 5 kts | 331° |
| 2026-05-04 19:13 | 47.45665 | 8.56964 | 1424 ft | 7 kts | 277° |
| 2026-05-04 19:13 | 47.45665 | 8.56962 | 1424 ft | 0 kts | 277° |
| 2026-05-04 19:15 | 47.45665 | 8.56958 | 1424 ft | 3 kts | 277° |
| 2026-05-04 19:15 | 47.45688 | 8.56655 | 1417 ft | 68 kts | 276° |
| 2026-05-04 19:15 | 47.45761 | 8.55621 | 1405 ft | 132 kts | 276° |
| 2026-05-04 19:15 | 47.45869 | 8.54090 | 1716 ft | 151 kts | 274° |
| 2026-05-04 19:16 | 47.45909 | 8.52613 | 2584 ft | 137 kts | 257° |
| 2026-05-04 19:16 | 47.45343 | 8.51517 | 2986 ft | 153 kts | 202° |
| 2026-05-04 19:16 | 47.44196 | 8.51700 | 3111 ft | 192 kts | 147° |
| 2026-05-04 19:16 | 47.43472 | 8.53409 | 3426 ft | 209 kts | 96° |
| 2026-05-04 19:17 | 47.43594 | 8.55534 | 3948 ft | 214 kts | 77° |
| 2026-05-04 19:17 | 47.44033 | 8.57658 | 4577 ft | 219 kts | 67° |
| 2026-05-04 19:17 | 47.44738 | 8.59659 | 5206 ft | 222 kts | 57° |
| 2026-05-04 19:17 | 47.45664 | 8.61496 | 5924 ft | 220 kts | 56° |
| 2026-05-04 19:18 | 47.46235 | 8.63526 | 6677 ft | 212 kts | 84° |
| 2026-05-04 19:18 | 47.46326 | 8.65722 | 7196 ft | 223 kts | 90° |
| 2026-05-04 19:18 | 47.46384 | 8.68136 | 7517 ft | 246 kts | 90° |
| 2026-05-04 19:18 | 47.46442 | 8.70788 | 7865 ft | 270 kts | 90° |
| 2026-05-04 19:19 | 47.46504 | 8.73638 | 8471 ft | 282 kts | 90° |
| 2026-05-04 19:19 | 47.46573 | 8.76568 | 9268 ft | 288 kts | 90° |
| 2026-05-04 19:19 | 47.46643 | 8.79559 | 10059 ft | 294 kts | 91° |
| 2026-05-04 19:19 | 47.46598 | 8.82671 | 10409 ft | 314 kts | 99° |
| 2026-05-04 19:20 | 47.46190 | 8.85952 | 10649 ft | 335 kts | 105° |
| 2026-05-04 19:20 | 47.45674 | 8.89407 | 11054 ft | 350 kts | 105° |
| 2026-05-04 19:20 | 47.45151 | 8.92955 | 11701 ft | 357 kts | 104° |
| 2026-05-04 19:20 | 47.44629 | 8.96564 | 12388 ft | 362 kts | 104° |
| 2026-05-04 19:21 | 47.44109 | 9.00233 | 13060 ft | 368 kts | 104° |
| 2026-05-04 19:21 | 47.43582 | 9.03971 | 13734 ft | 373 kts | 104° |
| 2026-05-04 19:21 | 47.43046 | 9.07742 | 14338 ft | 378 kts | 104° |
| 2026-05-04 19:21 | 47.42496 | 9.11572 | 14948 ft | 383 kts | 104° |
| 2026-05-04 19:22 | 47.42070 | 9.15422 | 15548 ft | 388 kts | 96° |
| 2026-05-04 19:22 | 47.42142 | 9.19427 | 16168 ft | 395 kts | 84° |
| 2026-05-04 19:22 | 47.42780 | 9.23460 | 16786 ft | 401 kts | 71° |
| 2026-05-04 19:22 | 47.43959 | 9.27211 | 17381 ft | 406 kts | 60° |
| 2026-05-04 19:23 | 47.45379 | 9.30838 | 17994 ft | 410 kts | 60° |
| 2026-05-04 19:23 | 47.46845 | 9.34420 | 18541 ft | 414 kts | 55° |
| 2026-05-04 19:23 | 47.48704 | 9.37689 | 19074 ft | 417 kts | 44° |
| 2026-05-04 19:23 | 47.50952 | 9.40412 | 19607 ft | 420 kts | 33° |
| 2026-05-04 19:24 | 47.53516 | 9.42483 | 20144 ft | 422 kts | 21° |
| 2026-05-04 19:24 | 47.56299 | 9.43933 | 20685 ft | 424 kts | 16° |
| 2026-05-04 19:24 | 47.59170 | 9.44962 | 21207 ft | 426 kts | 7° |
| 2026-05-04 19:24 | 47.61120 | 9.45266 | 21547 ft | 426 kts | 0° |
| 2026-05-04 19:25 | 47.64090 | 9.45420 | 21890 ft | 428 kts | 360° |
| 2026-05-04 19:25 | 47.67088 | 9.45575 | 21972 ft | 435 kts | 360° |
| 2026-05-04 19:25 | 47.70129 | 9.45732 | 21981 ft | 439 kts | 360° |
| 2026-05-04 19:25 | 47.73181 | 9.45895 | 21972 ft | 439 kts | 360° |
| 2026-05-04 19:26 | 47.76240 | 9.46061 | 21974 ft | 439 kts | 360° |
| 2026-05-04 19:26 | 47.79298 | 9.46228 | 21976 ft | 439 kts | 0° |
| 2026-05-04 19:26 | 47.82351 | 9.46361 | 21974 ft | 439 kts | 359° |
| 2026-05-04 19:26 | 47.85407 | 9.46399 | 21980 ft | 439 kts | 358° |
| 2026-05-04 19:27 | 47.88454 | 9.46373 | 21982 ft | 439 kts | 357° |
| 2026-05-04 19:27 | 47.91504 | 9.46317 | 21973 ft | 438 kts | 357° |
| 2026-05-04 19:27 | 47.94561 | 9.46261 | 21972 ft | 439 kts | 357° |
| 2026-05-04 19:27 | 47.97613 | 9.46221 | 21968 ft | 439 kts | 357° |
| 2026-05-04 19:28 | 48.00661 | 9.46203 | 21972 ft | 439 kts | 358° |
| 2026-05-04 19:28 | 48.03720 | 9.46201 | 21976 ft | 439 kts | 358° |
| 2026-05-04 19:28 | 48.06775 | 9.46203 | 21973 ft | 439 kts | 358° |
| 2026-05-04 19:28 | 48.09825 | 9.46205 | 21973 ft | 439 kts | 358° |
| 2026-05-04 19:29 | 48.12877 | 9.46204 | 21973 ft | 439 kts | 358° |
| 2026-05-04 19:29 | 48.15929 | 9.46197 | 21971 ft | 438 kts | 358° |
| 2026-05-04 19:29 | 48.18985 | 9.46191 | 21971 ft | 438 kts | 358° |
| 2026-05-04 19:29 | 48.22034 | 9.46193 | 21971 ft | 438 kts | 358° |
| 2026-05-04 19:30 | 48.25042 | 9.46198 | 21971 ft | 438 kts | 358° |
| 2026-05-04 19:30 | 48.28091 | 9.46204 | 21970 ft | 438 kts | 358° |
| 2026-05-04 19:30 | 48.31144 | 9.46210 | 21971 ft | 438 kts | 358° |
| 2026-05-04 19:30 | 48.34192 | 9.46216 | 21974 ft | 438 kts | 358° |
| 2026-05-04 19:31 | 48.37235 | 9.46220 | 21971 ft | 438 kts | 358° |
| 2026-05-04 19:31 | 48.40285 | 9.46223 | 21973 ft | 438 kts | 358° |
| 2026-05-04 19:31 | 48.43329 | 9.46223 | 21974 ft | 438 kts | 358° |
| 2026-05-04 19:31 | 48.46371 | 9.46080 | 21973 ft | 436 kts | 351° |
| 2026-05-04 19:32 | 48.49319 | 9.45133 | 21970 ft | 432 kts | 339° |
| 2026-05-04 19:32 | 48.52063 | 9.43360 | 21972 ft | 428 kts | 328° |
| 2026-05-04 19:32 | 48.54521 | 9.40833 | 21968 ft | 424 kts | 317° |
| 2026-05-04 19:32 | 48.56589 | 9.37701 | 21967 ft | 420 kts | 306° |
| 2026-05-04 19:33 | 48.58249 | 9.34160 | 21965 ft | 418 kts | 301° |
| 2026-05-04 19:33 | 48.59900 | 9.30540 | 21964 ft | 420 kts | 305° |
| 2026-05-04 19:33 | 48.61899 | 9.27293 | 21963 ft | 424 kts | 315° |
| 2026-05-04 19:33 | 48.64264 | 9.24608 | 21964 ft | 427 kts | 326° |
| 2026-05-04 19:34 | 48.66921 | 9.22572 | 21964 ft | 430 kts | 334° |
| 2026-05-04 19:34 | 48.69666 | 9.20774 | 21964 ft | 430 kts | 334° |
| 2026-05-04 19:34 | 48.72410 | 9.18961 | 21966 ft | 430 kts | 334° |
| 2026-05-04 19:34 | 48.75153 | 9.17143 | 21967 ft | 430 kts | 334° |
| 2026-05-04 19:35 | 48.77895 | 9.15320 | 21966 ft | 430 kts | 334° |
| 2026-05-04 19:35 | 48.80637 | 9.13495 | 21970 ft | 430 kts | 334° |
| 2026-05-04 19:35 | 48.83382 | 9.11672 | 21973 ft | 431 kts | 334° |
| 2026-05-04 19:35 | 48.86223 | 9.10201 | 21970 ft | 434 kts | 344° |
| 2026-05-04 19:36 | 48.89209 | 9.09485 | 21973 ft | 436 kts | 354° |
| 2026-05-04 19:36 | 48.92248 | 9.09550 | 21973 ft | 438 kts | 5° |
| 2026-05-04 19:36 | 48.95269 | 9.10284 | 21980 ft | 439 kts | 8° |
| 2026-05-04 19:36 | 48.98277 | 9.11088 | 21977 ft | 440 kts | 8° |
| 2026-05-04 19:37 | 49.01295 | 9.11889 | 21980 ft | 440 kts | 8° |
| 2026-05-04 19:37 | 49.04280 | 9.12682 | 21975 ft | 428 kts | 8° |
| 2026-05-04 19:37 | 49.07129 | 9.13447 | 21972 ft | 401 kts | 8° |
| 2026-05-04 19:37 | 49.09782 | 9.14163 | 21976 ft | 377 kts | 8° |
| 2026-05-04 19:38 | 49.12341 | 9.14849 | 21983 ft | 371 kts | 8° |
| 2026-05-04 19:38 | 49.14872 | 9.15523 | 21978 ft | 368 kts | 8° |
| 2026-05-04 19:38 | 49.17395 | 9.16194 | 21980 ft | 367 kts | 8° |
| 2026-05-04 19:38 | 49.19882 | 9.16857 | 21981 ft | 367 kts | 8° |
| 2026-05-04 19:39 | 49.22395 | 9.17528 | 21982 ft | 367 kts | 8° |
| 2026-05-04 19:39 | 49.24916 | 9.18203 | 21982 ft | 367 kts | 8° |
| 2026-05-04 19:39 | 49.27433 | 9.18880 | 21983 ft | 367 kts | 8° |
| 2026-05-04 19:39 | 49.29952 | 9.19560 | 21980 ft | 368 kts | 8° |
| 2026-05-04 19:40 | 49.32472 | 9.20238 | 21981 ft | 368 kts | 8° |
| 2026-05-04 19:40 | 49.34995 | 9.20915 | 21979 ft | 368 kts | 8° |
| 2026-05-04 19:40 | 49.37525 | 9.21595 | 21978 ft | 368 kts | 8° |
| 2026-05-04 19:40 | 49.40048 | 9.22272 | 21980 ft | 368 kts | 8° |
| 2026-05-04 19:41 | 49.42574 | 9.22953 | 21652 ft | 370 kts | 8° |
| 2026-05-04 19:41 | 49.45113 | 9.23639 | 21140 ft | 370 kts | 8° |
| 2026-05-04 19:41 | 49.47655 | 9.24323 | 20636 ft | 371 kts | 8° |
| 2026-05-04 19:41 | 49.50199 | 9.25007 | 20137 ft | 371 kts | 8° |
| 2026-05-04 19:42 | 49.52746 | 9.25693 | 19650 ft | 372 kts | 8° |
| 2026-05-04 19:42 | 49.55297 | 9.26381 | 19169 ft | 372 kts | 9° |
| 2026-05-04 19:42 | 49.57845 | 9.27074 | 18701 ft | 372 kts | 9° |
| 2026-05-04 19:42 | 49.60391 | 9.27768 | 18225 ft | 372 kts | 9° |
| 2026-05-04 19:43 | 49.62925 | 9.28459 | 17682 ft | 365 kts | 9° |
| 2026-05-04 19:43 | 49.65387 | 9.29133 | 17159 ft | 354 kts | 9° |
| 2026-05-04 19:43 | 49.67782 | 9.29789 | 16634 ft | 344 kts | 9° |
| 2026-05-04 19:43 | 49.70109 | 9.30427 | 16128 ft | 337 kts | 9° |
| 2026-05-04 19:44 | 49.72399 | 9.31056 | 15592 ft | 332 kts | 9° |
| 2026-05-04 19:44 | 49.74664 | 9.31674 | 15055 ft | 330 kts | 8° |
| 2026-05-04 19:44 | 49.76947 | 9.32271 | 14525 ft | 335 kts | 5° |
| 2026-05-04 19:44 | 49.79276 | 9.32324 | 14008 ft | 337 kts | 352° |
| 2026-05-04 19:45 | 49.81555 | 9.31629 | 13441 ft | 329 kts | 340° |
| 2026-05-04 19:45 | 49.83607 | 9.30310 | 12879 ft | 318 kts | 328° |
| 2026-05-04 19:45 | 49.85431 | 9.28426 | 12405 ft | 305 kts | 317° |
| 2026-05-04 19:45 | 49.86918 | 9.26168 | 11951 ft | 293 kts | 306° |
| 2026-05-04 19:46 | 49.88058 | 9.23639 | 11556 ft | 280 kts | 295° |
| 2026-05-04 19:46 | 49.88848 | 9.21009 | 11234 ft | 265 kts | 286° |
| 2026-05-04 19:46 | 49.89382 | 9.18339 | 10910 ft | 256 kts | 283° |
| 2026-05-04 19:46 | 49.89885 | 9.15698 | 10592 ft | 254 kts | 283° |
| 2026-05-04 19:47 | 49.90518 | 9.13137 | 10279 ft | 258 kts | 300° |
| 2026-05-04 19:47 | 49.91827 | 9.11243 | 10019 ft | 261 kts | 331° |
| 2026-05-04 19:47 | 49.93592 | 9.10610 | 9985 ft | 267 kts | 1° |
| 2026-05-04 19:47 | 49.95379 | 9.11384 | 9989 ft | 270 kts | 31° |
| 2026-05-04 19:48 | 49.96722 | 9.13379 | 9986 ft | 269 kts | 61° |
| 2026-05-04 19:48 | 49.97306 | 9.16096 | 9871 ft | 266 kts | 90° |
| 2026-05-04 19:48 | 49.97168 | 9.18917 | 9615 ft | 260 kts | 103° |
| 2026-05-04 19:48 | 49.96512 | 9.21456 | 9342 ft | 251 kts | 132° |
| 2026-05-04 19:49 | 49.95178 | 9.23072 | 9075 ft | 241 kts | 163° |
| 2026-05-04 19:49 | 49.93549 | 9.23354 | 8820 ft | 235 kts | 193° |
| 2026-05-04 19:49 | 49.92104 | 9.22257 | 8556 ft | 234 kts | 224° |
| 2026-05-04 19:49 | 49.91264 | 9.20114 | 8299 ft | 237 kts | 255° |
| 2026-05-04 19:50 | 49.91284 | 9.17596 | 8043 ft | 242 kts | 285° |
| 2026-05-04 19:50 | 49.91874 | 9.15134 | 7789 ft | 244 kts | 284° |
| 2026-05-04 19:50 | 49.92275 | 9.12583 | 7553 ft | 243 kts | 278° |
| 2026-05-04 19:50 | 49.92557 | 9.10010 | 7305 ft | 241 kts | 276° |
| 2026-05-04 19:51 | 49.92808 | 9.07440 | 7058 ft | 241 kts | 276° |
| 2026-05-04 19:51 | 49.93061 | 9.04868 | 6812 ft | 240 kts | 276° |
| 2026-05-04 19:51 | 49.93350 | 9.02311 | 6569 ft | 241 kts | 281° |
| 2026-05-04 19:51 | 49.93853 | 8.99829 | 6322 ft | 241 kts | 288° |
| 2026-05-04 19:52 | 49.94783 | 8.97678 | 6057 ft | 245 kts | 319° |
| 2026-05-04 19:52 | 49.96312 | 8.96562 | 5803 ft | 247 kts | 351° |
| 2026-05-04 19:52 | 49.98018 | 8.96705 | 5554 ft | 248 kts | 11° |
| 2026-05-04 19:52 | 49.99699 | 8.97282 | 5301 ft | 246 kts | 13° |
| 2026-05-04 19:53 | 50.01359 | 8.97907 | 5050 ft | 244 kts | 14° |
| 2026-05-04 19:53 | 50.03006 | 8.98532 | 4805 ft | 242 kts | 14° |
| 2026-05-04 19:53 | 50.04637 | 8.99151 | 4550 ft | 240 kts | 14° |
| 2026-05-04 19:53 | 50.06267 | 8.99696 | 4287 ft | 239 kts | 7° |
| 2026-05-04 19:54 | 50.07919 | 8.99943 | 4082 ft | 237 kts | 4° |
| 2026-05-04 19:54 | 50.09562 | 9.00130 | 4017 ft | 236 kts | 4° |
| 2026-05-04 19:54 | 50.11193 | 9.00041 | 4018 ft | 235 kts | 343° |
| 2026-05-04 19:54 | 50.12556 | 8.98765 | 4022 ft | 234 kts | 310° |
| 2026-05-04 19:55 | 50.13273 | 8.96529 | 4023 ft | 233 kts | 275° |
| 2026-05-04 19:55 | 50.12953 | 8.94124 | 4020 ft | 231 kts | 235° |
| 2026-05-04 19:55 | 50.11931 | 8.92180 | 4014 ft | 232 kts | 233° |
| 2026-05-04 19:55 | 50.11298 | 8.89882 | 4021 ft | 233 kts | 253° |
| 2026-05-04 19:56 | 50.10818 | 8.87505 | 4007 ft | 223 kts | 250° |
| 2026-05-04 19:56 | 50.10309 | 8.85290 | 3874 ft | 213 kts | 249° |
| 2026-05-04 19:56 | 50.09803 | 8.83143 | 3638 ft | 210 kts | 249° |
| 2026-05-04 19:56 | 50.09299 | 8.81007 | 3373 ft | 209 kts | 250° |
| 2026-05-04 19:57 | 50.08799 | 8.78888 | 3086 ft | 206 kts | 250° |
| 2026-05-04 19:57 | 50.08315 | 8.76838 | 2814 ft | 198 kts | 250° |
| 2026-05-04 19:57 | 50.07847 | 8.74859 | 2550 ft | 192 kts | 251° |
| 2026-05-04 19:57 | 50.07389 | 8.72920 | 2341 ft | 189 kts | 251° |
| 2026-05-04 19:58 | 50.06958 | 8.71020 | 2132 ft | 187 kts | 256° |
| 2026-05-04 19:58 | 50.06723 | 8.69024 | 1977 ft | 183 kts | 262° |
| 2026-05-04 19:58 | 50.06474 | 8.67125 | 1657 ft | 176 kts | 256° |
| 2026-05-04 19:58 | 50.06102 | 8.65382 | 1365 ft | 169 kts | 250° |
| 2026-05-04 19:59 | 50.05682 | 8.63697 | 1073 ft | 164 kts | 251° |
| 2026-05-04 19:59 | 50.05299 | 8.62066 | 816 ft | 157 kts | 250° |
| 2026-05-04 19:59 | 50.04931 | 8.60526 | 656 ft | 148 kts | 251° |
| 2026-05-04 19:59 | 50.04583 | 8.59041 | 457 ft | 145 kts | 251° |
| 2026-05-04 20:00 | 50.04257 | 8.57636 | 362 ft | 115 kts | 251° |
| 2026-05-04 20:00 | 50.04069 | 8.56844 | 363 ft | 58 kts | 249° |
| 2026-05-04 20:00 | 50.04061 | 8.56688 | 356 ft | 7 kts | 349° |
| 2026-05-04 20:00 | 50.04134 | 8.56742 | 361 ft | 12 kts | 27° |
| 2026-05-04 20:01 | 50.04187 | 8.56771 | 363 ft | 0 kts | 22° |
| 2026-05-04 20:13 | 50.04217 | 8.56787 | 361 ft | 11 kts | 15° |
| 2026-05-04 20:13 | 50.04275 | 8.56808 | 360 ft | 13 kts | 12° |
| 2026-05-04 20:13 | 50.04363 | 8.56836 | 360 ft | 12 kts | 11° |
| 2026-05-04 20:13 | 50.04436 | 8.56808 | 360 ft | 11 kts | 294° |
| 2026-05-04 20:14 | 50.04414 | 8.56667 | 358 ft | 15 kts | 248° |
| 2026-05-04 20:14 | 50.04375 | 8.56508 | 360 ft | 17 kts | 249° |
| 2026-05-04 20:14 | 50.04335 | 8.56338 | 359 ft | 15 kts | 250° |
| 2026-05-04 20:14 | 50.04296 | 8.56176 | 362 ft | 17 kts | 250° |
| 2026-05-04 20:15 | 50.04249 | 8.56030 | 356 ft | 12 kts | 205° |
| 2026-05-04 20:15 | 50.04182 | 8.56059 | 356 ft | 10 kts | 160° |
| 2026-05-04 20:15 | 50.04164 | 8.56070 | 357 ft | 0 kts | 160° |